sensor_id;sensor_type;location;lat;lon;timestamp;pressure;altitude;pressure_sealevel;temperature;humidity
15674;BME280;7937;48.090;16.212;2023-04-10T00:01:15;98299.63;;;0.75;89.44
15674;BME280;7937;48.090;16.212;2023-04-10T00:04:18;98390.75;;;1.31;89.39
15674;BME280;7937;48.090;16.212;2023-04-10T00:07:20;98583.50;;;2.58;89.56
15674;BME280;7937;48.090;16.212;2023-04-10T00:10:22;98502.91;;;2.18;89.50
15674;BME280;7937;48.090;16.212;2023-04-10T00:13:27;98572.16;;;2.58;89.42
15674;BME280;7937;48.090;16.212;2023-04-10T00:16:29;98515.38;;;2.16;89.59
15674;BME280;7937;48.090;16.212;2023-04-10T00:19:31;98470.44;;;1.95;89.43
15674;BME280;7937;48.090;16.212;2023-04-10T00:22:34;98486.03;;;1.96;89.43
15674;BME280;7937;48.090;16.212;2023-04-10T00:25:36;98278.44;;;0.69;89.29
15674;BME280;7937;48.090;16.212;2023-04-10T00:28:38;98230.75;;;0.24;88.84
15674;BME280;7937;48.090;16.212;2023-04-10T00:31:40;98445.50;;;1.66;89.57
15674;BME280;7937;48.090;16.212;2023-04-10T00:34:42;98421.91;;;1.58;89.50
15674;BME280;7937;48.090;16.212;2023-04-10T00:37:44;98519.19;;;2.22;89.42
15674;BME280;7937;48.090;16.212;2023-04-10T00:40:46;98450.44;;;1.69;89.55
15674;BME280;7937;48.090;16.212;2023-04-10T00:43:48;98462.91;;;1.75;89.47
15674;BME280;7937;48.090;16.212;2023-04-10T00:46:52;98500.81;;;1.97;89.38
15674;BME280;7937;48.090;16.212;2023-04-10T00:49:54;98524.94;;;2.09;89.83
15674;BME280;7937;48.090;16.212;2023-04-10T00:52:57;98426.66;;;1.54;89.53
15674;BME280;7937;48.090;16.212;2023-04-10T00:56:00;98505.75;;;1.92;89.63
15674;BME280;7937;48.090;16.212;2023-04-10T00:59:02;98447.66;;;1.54;89.51
15674;BME280;7937;48.090;16.212;2023-04-10T01:02:07;98365.31;;;0.98;89.41
15674;BME280;7937;48.090;16.212;2023-04-10T01:05:11;98555.31;;;2.12;89.48
15674;BME280;7937;48.090;16.212;2023-04-10T01:08:29;98487.69;;;1.57;89.60
15674;BME280;7937;48.090;16.212;2023-04-10T01:15:22;98494.28;;;1.61;89.79
15674;BME280;7937;48.090;16.212;2023-04-10T01:18:35;98492.31;;;1.63;89.92
15674;BME280;7937;48.090;16.212;2023-04-10T01:21:40;98471.78;;;1.50;89.51
15674;BME280;7937;48.090;16.212;2023-04-10T01:31:53;98465.38;;;1.52;89.71
15674;BME280;7937;48.090;16.212;2023-04-10T01:35:01;98413.22;;;1.00;89.76
15674;BME280;7937;48.090;16.212;2023-04-10T01:38:08;98513.63;;;1.84;89.64
15674;BME280;7937;48.090;16.212;2023-04-10T01:41:12;98430.91;;;1.47;89.70
15674;BME280;7937;48.090;16.212;2023-04-10T01:44:17;98522.66;;;1.90;89.63
15674;BME280;7937;48.090;16.212;2023-04-10T01:47:23;98549.41;;;2.18;89.72
15674;BME280;7937;48.090;16.212;2023-04-10T01:50:27;98525.63;;;2.03;89.84
15674;BME280;7937;48.090;16.212;2023-04-10T01:53:31;98472.63;;;1.34;89.42
15674;BME280;7937;48.090;16.212;2023-04-10T01:56:33;98460.97;;;1.45;89.89
15674;BME280;7937;48.090;16.212;2023-04-10T01:59:38;98272.53;;;0.26;89.57
15674;BME280;7937;48.090;16.212;2023-04-10T02:02:40;98512.16;;;1.81;89.92
15674;BME280;7937;48.090;16.212;2023-04-10T02:05:59;98545.97;;;2.09;89.80
15674;BME280;7937;48.090;16.212;2023-04-10T02:09:10;98552.34;;;2.06;89.76
15674;BME280;7937;48.090;16.212;2023-04-10T02:12:21;98358.94;;;0.85;89.78
15674;BME280;7937;48.090;16.212;2023-04-10T02:15:26;98542.69;;;1.99;89.77
15674;BME280;7937;48.090;16.212;2023-04-10T02:18:33;98401.75;;;1.01;89.69
15674;BME280;7937;48.090;16.212;2023-04-10T02:21:36;98454.22;;;1.26;89.62
15674;BME280;7937;48.090;16.212;2023-04-10T02:24:41;98220.06;;;-0.15;89.36
15674;BME280;7937;48.090;16.212;2023-04-10T02:27:44;98539.75;;;1.69;89.45
15674;BME280;7937;48.090;16.212;2023-04-10T02:30:46;98265.44;;;-0.14;89.54
15674;BME280;7937;48.090;16.212;2023-04-10T02:33:49;98538.41;;;1.57;89.62
15674;BME280;7937;48.090;16.212;2023-04-10T02:36:51;98194.38;;;-0.78;89.57
15674;BME280;7937;48.090;16.212;2023-04-10T02:39:53;98289.00;;;-0.14;89.73
15674;BME280;7937;48.090;16.212;2023-04-10T02:42:58;98534.16;;;1.48;89.72
15674;BME280;7937;48.090;16.212;2023-04-10T02:46:00;98446.97;;;0.79;89.75
15674;BME280;7937;48.090;16.212;2023-04-10T02:49:09;98235.13;;;-0.67;89.68
15674;BME280;7937;48.090;16.212;2023-04-10T02:52:12;98382.78;;;0.33;89.90
15674;BME280;7937;48.090;16.212;2023-04-10T02:55:14;98389.50;;;0.35;89.78
15674;BME280;7937;48.090;16.212;2023-04-10T02:58:16;98509.59;;;0.98;89.86
15674;BME280;7937;48.090;16.212;2023-04-10T03:01:18;98461.19;;;0.68;90.09
15674;BME280;7937;48.090;16.212;2023-04-10T03:04:21;98503.38;;;0.91;90.08
15674;BME280;7937;48.090;16.212;2023-04-10T03:07:24;98494.66;;;0.83;89.90
15674;BME280;7937;48.090;16.212;2023-04-10T03:10:27;98454.63;;;0.64;89.89
15674;BME280;7937;48.090;16.212;2023-04-10T03:13:29;98427.91;;;0.61;90.19
15674;BME280;7937;48.090;16.212;2023-04-10T03:16:32;98451.06;;;0.82;90.52
15674;BME280;7937;48.090;16.212;2023-04-10T03:19:36;98496.88;;;1.03;90.44
15674;BME280;7937;48.090;16.212;2023-04-10T03:22:39;98483.03;;;0.93;90.33
15674;BME280;7937;48.090;16.212;2023-04-10T03:25:43;98385.69;;;0.21;90.20
15674;BME280;7937;48.090;16.212;2023-04-10T03:28:45;98479.22;;;0.71;90.42
15674;BME280;7937;48.090;16.212;2023-04-10T03:31:47;98544.59;;;1.15;90.50
15674;BME280;7937;48.090;16.212;2023-04-10T03:34:50;98389.09;;;0.14;90.26
15674;BME280;7937;48.090;16.212;2023-04-10T03:37:52;98436.47;;;0.29;90.26
15674;BME280;7937;48.090;16.212;2023-04-10T03:40:54;98469.97;;;0.51;90.50
15674;BME280;7937;48.090;16.212;2023-04-10T03:43:58;98328.28;;;-0.48;90.23
15674;BME280;7937;48.090;16.212;2023-04-10T03:47:03;98238.69;;;-1.02;90.30
15674;BME280;7937;48.090;16.212;2023-04-10T03:50:06;98532.19;;;0.83;90.71
15674;BME280;7937;48.090;16.212;2023-04-10T03:53:15;98253.50;;;-1.11;90.41
15674;BME280;7937;48.090;16.212;2023-04-10T03:56:19;98499.41;;;0.37;90.52
15674;BME280;7937;48.090;16.212;2023-04-10T03:59:21;98457.28;;;-0.04;90.47
15674;BME280;7937;48.090;16.212;2023-04-10T04:02:35;98518.53;;;0.29;90.70
15674;BME280;7937;48.090;16.212;2023-04-10T04:05:38;98463.28;;;-0.12;90.47
15674;BME280;7937;48.090;16.212;2023-04-10T04:08:58;98509.94;;;0.11;90.50
15674;BME280;7937;48.090;16.212;2023-04-10T04:12:29;98391.03;;;-0.74;90.18
15674;BME280;7937;48.090;16.212;2023-04-10T04:15:38;98506.94;;;0.06;90.89
15674;BME280;7937;48.090;16.212;2023-04-10T04:18:58;98388.31;;;-0.73;90.48
15674;BME280;7937;48.090;16.212;2023-04-10T04:22:04;98415.22;;;-0.55;90.48
15674;BME280;7937;48.090;16.212;2023-04-10T04:25:36;98514.91;;;-0.04;90.66
15674;BME280;7937;48.090;16.212;2023-04-10T04:28:53;98552.09;;;0.25;90.53
15674;BME280;7937;48.090;16.212;2023-04-10T04:32:12;98516.19;;;-0.08;90.46
15674;BME280;7937;48.090;16.212;2023-04-10T04:35:34;98554.19;;;0.22;90.62
15674;BME280;7937;48.090;16.212;2023-04-10T04:38:59;98452.53;;;-0.53;90.54
15674;BME280;7937;48.090;16.212;2023-04-10T04:42:31;98539.03;;;-0.18;90.63
15674;BME280;7937;48.090;16.212;2023-04-10T04:45:56;98320.53;;;-1.28;90.57
15674;BME280;7937;48.090;16.212;2023-04-10T04:49:21;98446.34;;;-0.52;90.59
15674;BME280;7937;48.090;16.212;2023-04-10T04:52:44;98457.97;;;-0.46;90.70
15674;BME280;7937;48.090;16.212;2023-04-10T04:56:05;98496.53;;;-0.30;90.77
15674;BME280;7937;48.090;16.212;2023-04-10T04:59:42;98510.03;;;0.01;90.97
15674;BME280;7937;48.090;16.212;2023-04-10T05:02:52;98520.41;;;0.11;90.47
15674;BME280;7937;48.090;16.212;2023-04-10T05:06:07;98261.34;;;-1.55;90.65
15674;BME280;7937;48.090;16.212;2023-04-10T05:09:23;98504.16;;;0.07;90.94
15674;BME280;7937;48.090;16.212;2023-04-10T05:13:04;98488.09;;;0.02;90.65
15674;BME280;7937;48.090;16.212;2023-04-10T05:16:32;98571.81;;;0.72;91.17
15674;BME280;7937;48.090;16.212;2023-04-10T05:19:46;98421.97;;;0.00;91.28
15674;BME280;7937;48.090;16.212;2023-04-10T05:23:09;98477.00;;;0.42;91.26
15674;BME280;7937;48.090;16.212;2023-04-10T05:26:11;98474.19;;;0.44;91.16
15674;BME280;7937;48.090;16.212;2023-04-10T05:29:42;98394.31;;;0.06;91.56
15674;BME280;7937;48.090;16.212;2023-04-10T05:32:52;98465.69;;;1.17;91.68
15674;BME280;7937;48.090;16.212;2023-04-10T05:36:03;98530.56;;;1.73;91.87
15674;BME280;7937;48.090;16.212;2023-04-10T05:39:25;98529.88;;;2.04;91.89
15674;BME280;7937;48.090;16.212;2023-04-10T05:42:52;98509.84;;;2.03;91.22
15674;BME280;7937;48.090;16.212;2023-04-10T05:46:18;98253.41;;;0.42;91.05
15674;BME280;7937;48.090;16.212;2023-04-10T05:49:30;98422.41;;;1.53;90.88
15674;BME280;7937;48.090;16.212;2023-04-10T05:52:53;98510.16;;;2.00;90.63
15674;BME280;7937;48.090;16.212;2023-04-10T05:56:09;98481.91;;;2.02;91.04
15674;BME280;7937;48.090;16.212;2023-04-10T05:59:30;98553.44;;;2.45;90.92
15674;BME280;7937;48.090;16.212;2023-04-10T06:02:54;98556.88;;;2.62;91.06
15674;BME280;7937;48.090;16.212;2023-04-10T06:06:00;98508.56;;;2.85;89.07
15674;BME280;7937;48.090;16.212;2023-04-10T06:09:06;98548.56;;;3.43;87.52
15674;BME280;7937;48.090;16.212;2023-04-10T06:12:08;98551.94;;;3.98;83.11
15674;BME280;7937;48.090;16.212;2023-04-10T06:15:13;98588.06;;;4.64;80.95
15674;BME280;7937;48.090;16.212;2023-04-10T06:18:15;98509.91;;;4.19;80.78
15674;BME280;7937;48.090;16.212;2023-04-10T06:21:18;98414.41;;;3.79;79.73
15674;BME280;7937;48.090;16.212;2023-04-10T06:24:20;98525.47;;;4.44;78.65
15674;BME280;7937;48.090;16.212;2023-04-10T06:27:23;98529.28;;;5.07;76.60
15674;BME280;7937;48.090;16.212;2023-04-10T06:30:25;98497.03;;;4.90;76.14
15674;BME280;7937;48.090;16.212;2023-04-10T06:33:27;98522.34;;;5.21;76.38
15674;BME280;7937;48.090;16.212;2023-04-10T06:36:29;98518.38;;;5.10;76.54
15674;BME280;7937;48.090;16.212;2023-04-10T06:39:36;98502.97;;;5.13;76.39
15674;BME280;7937;48.090;16.212;2023-04-10T06:42:38;98373.94;;;4.17;76.71
15674;BME280;7937;48.090;16.212;2023-04-10T06:46:02;98503.41;;;5.17;76.01
15674;BME280;7937;48.090;16.212;2023-04-10T06:49:05;98513.88;;;5.47;74.84
15674;BME280;7937;48.090;16.212;2023-04-10T06:52:07;98567.03;;;5.94;73.72
15674;BME280;7937;48.090;16.212;2023-04-10T06:55:12;98440.09;;;5.24;73.46
15674;BME280;7937;48.090;16.212;2023-04-10T06:58:14;98492.63;;;5.55;74.21
15674;BME280;7937;48.090;16.212;2023-04-10T07:01:16;98520.19;;;5.67;73.59
15674;BME280;7937;48.090;16.212;2023-04-10T07:04:19;98331.78;;;4.74;73.14
15674;BME280;7937;48.090;16.212;2023-04-10T07:07:22;98207.63;;;3.97;73.00
15674;BME280;7937;48.090;16.212;2023-04-10T07:10:24;98557.47;;;6.50;72.33
15674;BME280;7937;48.090;16.212;2023-04-10T07:13:26;98296.59;;;4.88;71.49
15674;BME280;7937;48.090;16.212;2023-04-10T07:16:28;98607.88;;;6.97;71.21
15674;BME280;7937;48.090;16.212;2023-04-10T07:19:30;98491.03;;;6.10;72.50
15674;BME280;7937;48.090;16.212;2023-04-10T07:22:33;98111.97;;;3.81;71.71
15674;BME280;7937;48.090;16.212;2023-04-10T07:25:35;98534.50;;;6.57;69.67
15674;BME280;7937;48.090;16.212;2023-04-10T07:28:39;98628.69;;;7.07;70.69
15674;BME280;7937;48.090;16.212;2023-04-10T07:31:41;98464.56;;;6.03;70.55
15674;BME280;7937;48.090;16.212;2023-04-10T07:34:44;98470.75;;;6.17;70.19
15674;BME280;7937;48.090;16.212;2023-04-10T07:37:46;98339.75;;;5.30;69.56
15674;BME280;7937;48.090;16.212;2023-04-10T07:40:56;98141.72;;;4.18;70.98
15674;BME280;7937;48.090;16.212;2023-04-10T07:43:58;98547.44;;;6.80;69.15
15674;BME280;7937;48.090;16.212;2023-04-10T07:47:02;98397.41;;;5.76;68.91
15674;BME280;7937;48.090;16.212;2023-04-10T07:50:05;98455.19;;;5.79;70.75
15674;BME280;7937;48.090;16.212;2023-04-10T07:53:07;98519.13;;;6.39;69.55
15674;BME280;7937;48.090;16.212;2023-04-10T07:56:17;98348.50;;;5.59;68.61
15674;BME280;7937;48.090;16.212;2023-04-10T07:59:19;98393.38;;;5.80;68.51
15674;BME280;7937;48.090;16.212;2023-04-10T08:02:21;98479.00;;;6.35;69.16
15674;BME280;7937;48.090;16.212;2023-04-10T08:05:24;98274.97;;;5.34;68.63
15674;BME280;7937;48.090;16.212;2023-04-10T08:08:26;98383.16;;;5.99;67.98
15674;BME280;7937;48.090;16.212;2023-04-10T08:11:30;98438.22;;;6.64;68.36
15674;BME280;7937;48.090;16.212;2023-04-10T08:14:33;98524.56;;;7.07;67.84
15674;BME280;7937;48.090;16.212;2023-04-10T08:17:35;98405.03;;;6.62;66.65
15674;BME280;7937;48.090;16.212;2023-04-10T08:20:37;98314.25;;;6.07;67.19
15674;BME280;7937;48.090;16.212;2023-04-10T08:23:39;98418.97;;;6.97;65.19
15674;BME280;7937;48.090;16.212;2023-04-10T08:26:41;98436.31;;;7.06;67.40
15674;BME280;7937;48.090;16.212;2023-04-10T08:29:43;98409.00;;;7.06;64.21
15674;BME280;7937;48.090;16.212;2023-04-10T08:32:45;98640.13;;;8.43;63.47
15674;BME280;7937;48.090;16.212;2023-04-10T08:35:47;98472.06;;;7.50;63.06
15674;BME280;7937;48.090;16.212;2023-04-10T08:38:49;98272.59;;;6.35;64.75
15674;BME280;7937;48.090;16.212;2023-04-10T08:41:52;98456.78;;;7.65;63.13
15674;BME280;7937;48.090;16.212;2023-04-10T08:44:55;98530.44;;;8.23;62.85
15674;BME280;7937;48.090;16.212;2023-04-10T08:47:57;98252.91;;;6.84;61.66
15674;BME280;7937;48.090;16.212;2023-04-10T08:51:04;98359.72;;;7.44;63.09
15674;BME280;7937;48.090;16.212;2023-04-10T08:54:17;98364.19;;;7.37;61.14
15674;BME280;7937;48.090;16.212;2023-04-10T08:57:21;98357.66;;;7.33;63.79
15674;BME280;7937;48.090;16.212;2023-04-10T09:00:24;98323.22;;;7.40;61.93
15674;BME280;7937;48.090;16.212;2023-04-10T09:03:27;98399.38;;;8.24;60.20
15674;BME280;7937;48.090;16.212;2023-04-10T09:06:29;98174.72;;;6.42;60.26
15674;BME280;7937;48.090;16.212;2023-04-10T09:09:32;98627.34;;;9.18;61.33
15674;BME280;7937;48.090;16.212;2023-04-10T09:12:46;98451.22;;;8.40;63.68
15674;BME280;7937;48.090;16.212;2023-04-10T09:15:56;98580.94;;;9.59;60.85
15674;BME280;7937;48.090;16.212;2023-04-10T09:18:59;98470.84;;;8.90;62.37
15674;BME280;7937;48.090;16.212;2023-04-10T09:22:06;98608.13;;;9.99;59.94
15674;BME280;7937;48.090;16.212;2023-04-10T09:25:30;98491.75;;;9.18;60.70
15674;BME280;7937;48.090;16.212;2023-04-10T09:29:00;98595.75;;;10.12;59.14
15674;BME280;7937;48.090;16.212;2023-04-10T09:32:02;98496.94;;;9.07;60.33
15674;BME280;7937;48.090;16.212;2023-04-10T09:35:04;98596.00;;;9.72;61.54
15674;BME280;7937;48.090;16.212;2023-04-10T09:38:18;98540.72;;;9.74;59.41
15674;BME280;7937;48.090;16.212;2023-04-10T09:41:21;98377.06;;;8.45;61.23
15674;BME280;7937;48.090;16.212;2023-04-10T09:44:34;98524.16;;;9.40;60.14
15674;BME280;7937;48.090;16.212;2023-04-10T09:47:36;98362.91;;;8.58;61.60
15674;BME280;7937;48.090;16.212;2023-04-10T09:50:39;98448.53;;;9.29;58.78
15674;BME280;7937;48.090;16.212;2023-04-10T09:53:47;98375.91;;;8.72;58.58
15674;BME280;7937;48.090;16.212;2023-04-10T09:56:51;98247.25;;;8.23;58.85
15674;BME280;7937;48.090;16.212;2023-04-10T09:59:58;98486.22;;;9.83;56.66
15674;BME280;7937;48.090;16.212;2023-04-10T10:03:05;98426.13;;;9.75;56.80
15674;BME280;7937;48.090;16.212;2023-04-10T10:06:10;98275.34;;;9.01;57.79
15674;BME280;7937;48.090;16.212;2023-04-10T10:09:12;98478.53;;;10.25;55.00
15674;BME280;7937;48.090;16.212;2023-04-10T10:12:21;98166.78;;;7.98;57.65
15674;BME280;7937;48.090;16.212;2023-04-10T10:18:41;98288.47;;;8.96;55.51
15674;BME280;7937;48.090;16.212;2023-04-10T10:21:44;98535.56;;;10.36;54.86
15674;BME280;7937;48.090;16.212;2023-04-10T10:24:48;98535.06;;;10.64;56.03
15674;BME280;7937;48.090;16.212;2023-04-10T10:27:52;98441.25;;;10.18;55.22
15674;BME280;7937;48.090;16.212;2023-04-10T10:30:55;98307.72;;;9.66;55.38
15674;BME280;7937;48.090;16.212;2023-04-10T10:33:59;98143.16;;;8.71;55.87
15674;BME280;7937;48.090;16.212;2023-04-10T10:37:11;98521.22;;;11.28;55.57
15674;BME280;7937;48.090;16.212;2023-04-10T10:43:35;98444.41;;;11.19;52.13
15674;BME280;7937;48.090;16.212;2023-04-10T10:46:43;98509.59;;;11.53;52.89
15674;BME280;7937;48.090;16.212;2023-04-10T10:52:55;98260.97;;;9.89;52.17
15674;BME280;7937;48.090;16.212;2023-04-10T10:55:58;98281.25;;;9.71;49.49
15674;BME280;7937;48.090;16.212;2023-04-10T11:02:44;98203.44;;;9.57;50.77
15674;BME280;7937;48.090;16.212;2023-04-10T11:05:52;98445.94;;;11.80;49.28
15674;BME280;7937;48.090;16.212;2023-04-10T11:08:57;98199.91;;;10.54;47.24
15674;BME280;7937;48.090;16.212;2023-04-10T11:12:00;98442.72;;;12.01;49.34
15674;BME280;7937;48.090;16.212;2023-04-10T11:15:02;98262.94;;;11.14;49.20
15674;BME280;7937;48.090;16.212;2023-04-10T11:18:07;98470.47;;;12.35;47.66
15674;BME280;7937;48.090;16.212;2023-04-10T11:21:17;98238.56;;;10.87;48.68
15674;BME280;7937;48.090;16.212;2023-04-10T11:24:19;98394.53;;;12.20;48.42
15674;BME280;7937;48.090;16.212;2023-04-10T11:27:56;98444.34;;;12.37;48.01
15674;BME280;7937;48.090;16.212;2023-04-10T11:31:21;98440.50;;;12.33;48.19
15674;BME280;7937;48.090;16.212;2023-04-10T11:34:24;98206.56;;;10.75;44.49
15674;BME280;7937;48.090;16.212;2023-04-10T11:37:28;98369.88;;;11.47;45.62
15674;BME280;7937;48.090;16.212;2023-04-10T11:40:30;98249.09;;;10.70;46.84
15674;BME280;7937;48.090;16.212;2023-04-10T11:43:32;98228.25;;;10.37;46.97
15674;BME280;7937;48.090;16.212;2023-04-10T11:46:39;98357.78;;;11.09;48.40
15674;BME280;7937;48.090;16.212;2023-04-10T11:49:42;98320.81;;;10.83;49.41
15674;BME280;7937;48.090;16.212;2023-04-10T11:52:44;98426.16;;;11.57;49.65
15674;BME280;7937;48.090;16.212;2023-04-10T11:55:46;98278.13;;;10.29;49.08
15674;BME280;7937;48.090;16.212;2023-04-10T11:58:49;98201.22;;;10.03;49.61
15674;BME280;7937;48.090;16.212;2023-04-10T12:02:04;98187.94;;;10.33;47.57
15674;BME280;7937;48.090;16.212;2023-04-10T12:05:07;98198.53;;;10.51;46.98
15674;BME280;7937;48.090;16.212;2023-04-10T12:08:10;98289.25;;;11.10;46.98
15674;BME280;7937;48.090;16.212;2023-04-10T12:11:12;98334.06;;;11.55;46.61
15674;BME280;7937;48.090;16.212;2023-04-10T12:14:15;98367.81;;;11.61;44.47
15674;BME280;7937;48.090;16.212;2023-04-10T12:17:17;98327.28;;;11.17;46.74
15674;BME280;7937;48.090;16.212;2023-04-10T12:20:20;98120.63;;;9.84;49.59
15674;BME280;7937;48.090;16.212;2023-04-10T12:23:26;98204.44;;;10.53;48.41
15674;BME280;7937;48.090;16.212;2023-04-10T12:26:28;98203.78;;;10.81;50.74
15674;BME280;7937;48.090;16.212;2023-04-10T12:29:31;98208.78;;;11.13;46.45
15674;BME280;7937;48.090;16.212;2023-04-10T12:32:33;98192.47;;;11.09;45.56
15674;BME280;7937;48.090;16.212;2023-04-10T12:35:39;98394.50;;;12.43;44.91
15674;BME280;7937;48.090;16.212;2023-04-10T12:38:43;98079.53;;;10.22;45.11
15674;BME280;7937;48.090;16.212;2023-04-10T12:41:45;98374.91;;;12.14;44.63
15674;BME280;7937;48.090;16.212;2023-04-10T12:44:56;98200.44;;;10.98;45.42
15674;BME280;7937;48.090;16.212;2023-04-10T12:47:58;98188.59;;;10.82;46.14
15674;BME280;7937;48.090;16.212;2023-04-10T12:51:01;98381.44;;;11.95;47.27
15674;BME280;7937;48.090;16.212;2023-04-10T12:54:03;98263.72;;;11.02;46.84
15674;BME280;7937;48.090;16.212;2023-04-10T12:57:05;98274.88;;;11.11;46.80
15674;BME280;7937;48.090;16.212;2023-04-10T13:00:09;98144.44;;;10.51;48.67
15674;BME280;7937;48.090;16.212;2023-04-10T13:03:12;98379.41;;;12.25;47.37
15674;BME280;7937;48.090;16.212;2023-04-10T13:06:14;98211.63;;;11.70;44.43
15674;BME280;7937;48.090;16.212;2023-04-10T13:09:17;98078.56;;;11.22;43.89
15674;BME280;7937;48.090;16.212;2023-04-10T13:12:19;98246.34;;;12.10;43.86
15674;BME280;7937;48.090;16.212;2023-04-10T13:15:21;98125.41;;;11.29;44.82
15674;BME280;7937;48.090;16.212;2023-04-10T13:18:23;98346.88;;;12.69;46.28
15674;BME280;7937;48.090;16.212;2023-04-10T13:21:25;98284.09;;;12.14;45.47
15674;BME280;7937;48.090;16.212;2023-04-10T13:24:30;98277.16;;;12.01;45.14
15674;BME280;7937;48.090;16.212;2023-04-10T13:27:32;98093.47;;;10.47;45.53
15674;BME280;7937;48.090;16.212;2023-04-10T13:30:35;98110.50;;;10.58;45.41
15674;BME280;7937;48.090;16.212;2023-04-10T13:33:37;98200.06;;;10.82;45.64
15674;BME280;7937;48.090;16.212;2023-04-10T13:36:39;98134.25;;;10.48;46.47
15674;BME280;7937;48.090;16.212;2023-04-10T13:39:42;98095.00;;;10.13;44.69
15674;BME280;7937;48.090;16.212;2023-04-10T13:42:44;98028.28;;;9.73;45.74
15674;BME280;7937;48.090;16.212;2023-04-10T13:45:46;98154.50;;;10.49;46.07
15674;BME280;7937;48.090;16.212;2023-04-10T13:48:51;98220.06;;;11.03;45.86
15674;BME280;7937;48.090;16.212;2023-04-10T13:51:53;98262.38;;;11.23;46.28
15674;BME280;7937;48.090;16.212;2023-04-10T13:54:55;98085.00;;;10.27;47.26
15674;BME280;7937;48.090;16.212;2023-04-10T13:57:57;98229.53;;;11.46;47.84
15674;BME280;7937;48.090;16.212;2023-04-10T14:00:59;98264.66;;;11.90;47.03
15674;BME280;7937;48.090;16.212;2023-04-10T14:04:02;98310.03;;;12.42;43.97
15674;BME280;7937;48.090;16.212;2023-04-10T14:07:04;98078.56;;;11.22;43.76
15674;BME280;7937;48.090;16.212;2023-04-10T14:10:07;98219.75;;;12.16;45.10
15674;BME280;7937;48.090;16.212;2023-04-10T14:13:09;98186.06;;;11.86;45.72
15674;BME280;7937;48.090;16.212;2023-04-10T14:16:12;98262.84;;;12.48;44.85
15674;BME280;7937;48.090;16.212;2023-04-10T14:19:15;98215.72;;;12.01;45.07
15674;BME280;7937;48.090;16.212;2023-04-10T14:22:17;98116.53;;;11.00;45.51
15674;BME280;7937;48.090;16.212;2023-04-10T14:25:19;98007.84;;;10.08;45.94
15674;BME280;7937;48.090;16.212;2023-04-10T14:28:21;98237.78;;;11.45;47.10
15674;BME280;7937;48.090;16.212;2023-04-10T14:31:23;98065.91;;;10.30;46.93
15674;BME280;7937;48.090;16.212;2023-04-10T14:34:27;98049.66;;;10.20;48.19
15674;BME280;7937;48.090;16.212;2023-04-10T14:37:29;98265.47;;;11.55;46.84
15674;BME280;7937;48.090;16.212;2023-04-10T14:40:33;98205.53;;;11.23;48.20
15674;BME280;7937;48.090;16.212;2023-04-10T14:43:36;98223.72;;;11.49;48.76
15674;BME280;7937;48.090;16.212;2023-04-10T14:46:38;98116.41;;;10.83;46.74
15674;BME280;7937;48.090;16.212;2023-04-10T14:49:40;98174.00;;;11.20;45.20
15674;BME280;7937;48.090;16.212;2023-04-10T14:52:42;98260.94;;;11.79;47.86
15674;BME280;7937;48.090;16.212;2023-04-10T14:55:44;98132.53;;;11.00;46.92
15674;BME280;7937;48.090;16.212;2023-04-10T14:58:46;98179.53;;;11.42;45.85
15674;BME280;7937;48.090;16.212;2023-04-10T15:01:48;98200.59;;;11.78;44.93
15674;BME280;7937;48.090;16.212;2023-04-10T15:04:51;98116.72;;;11.22;45.71
15674;BME280;7937;48.090;16.212;2023-04-10T15:07:53;97957.31;;;10.32;44.31
15674;BME280;7937;48.090;16.212;2023-04-10T15:10:55;98022.50;;;10.65;44.28
15674;BME280;7937;48.090;16.212;2023-04-10T15:13:58;98236.59;;;12.16;43.90
15674;BME280;7937;48.090;16.212;2023-04-10T15:17:00;98202.47;;;12.06;43.61
15674;BME280;7937;48.090;16.212;2023-04-10T15:20:03;98152.09;;;11.70;43.62
15674;BME280;7937;48.090;16.212;2023-04-10T15:23:05;98183.88;;;12.11;42.83
15674;BME280;7937;48.090;16.212;2023-04-10T15:26:13;98141.19;;;11.71;43.52
15674;BME280;7937;48.090;16.212;2023-04-10T15:29:16;98001.34;;;10.87;45.65
15674;BME280;7937;48.090;16.212;2023-04-10T15:32:18;98133.41;;;11.70;45.54
15674;BME280;7937;48.090;16.212;2023-04-10T15:35:20;98152.53;;;11.78;46.11
15674;BME280;7937;48.090;16.212;2023-04-10T15:38:23;98086.69;;;11.27;47.47
15674;BME280;7937;48.090;16.212;2023-04-10T15:41:26;98102.22;;;11.30;47.47
15674;BME280;7937;48.090;16.212;2023-04-10T15:44:31;98150.25;;;11.70;45.07
15674;BME280;7937;48.090;16.212;2023-04-10T15:47:34;98087.38;;;11.34;44.84
15674;BME280;7937;48.090;16.212;2023-04-10T15:50:36;97896.06;;;10.08;44.45
15674;BME280;7937;48.090;16.212;2023-04-10T15:53:39;98093.50;;;11.34;44.51
15674;BME280;7937;48.090;16.212;2023-04-10T15:56:41;98142.00;;;11.83;43.41
15674;BME280;7937;48.090;16.212;2023-04-10T15:59:43;98098.84;;;11.34;47.75
15674;BME280;7937;48.090;16.212;2023-04-10T16:02:45;98167.94;;;11.36;49.76
15674;BME280;7937;48.090;16.212;2023-04-10T16:05:48;97963.66;;;10.07;45.60
15674;BME280;7937;48.090;16.212;2023-04-10T16:08:51;98155.69;;;11.23;46.73
15674;BME280;7937;48.090;16.212;2023-04-10T16:11:54;98118.84;;;10.73;49.74
15674;BME280;7937;48.090;16.212;2023-04-10T16:14:56;98056.88;;;10.31;51.69
15674;BME280;7937;48.090;16.212;2023-04-10T16:17:59;97827.88;;;8.60;51.72
15674;BME280;7937;48.090;16.212;2023-04-10T16:21:01;97963.50;;;9.25;53.20
15674;BME280;7937;48.090;16.212;2023-04-10T16:24:08;97902.78;;;8.81;50.54
15674;BME280;7937;48.090;16.212;2023-04-10T16:27:10;98077.91;;;10.21;49.09
15674;BME280;7937;48.090;16.212;2023-04-10T16:30:12;98081.94;;;10.12;51.70
15674;BME280;7937;48.090;16.212;2023-04-10T16:33:14;97913.06;;;8.77;53.81
15674;BME280;7937;48.090;16.212;2023-04-10T16:36:16;98169.47;;;10.20;54.15
15674;BME280;7937;48.090;16.212;2023-04-10T16:39:18;98070.94;;;9.36;55.38
15674;BME280;7937;48.090;16.212;2023-04-10T16:42:21;98120.75;;;9.59;56.27
15674;BME280;7937;48.090;16.212;2023-04-10T16:45:23;97876.19;;;7.95;56.66
15674;BME280;7937;48.090;16.212;2023-04-10T16:48:25;98151.06;;;9.58;57.69
15674;BME280;7937;48.090;16.212;2023-04-10T16:51:27;98072.50;;;8.89;58.01
15674;BME280;7937;48.090;16.212;2023-04-10T16:54:29;98098.34;;;9.00;58.50
15674;BME280;7937;48.090;16.212;2023-04-10T16:57:31;98070.50;;;8.66;59.37